sensor_id;sensor_type;location;lat;lon;timestamp;P1;durP1;ratioP1;P2;durP2;ratioP2
36457;SDS011;22480;50.546;12.292;2023-02-23T00:01:19;14.73;;;10.20;;
36457;SDS011;22480;50.546;12.292;2023-02-23T00:03:47;14.10;;;9.50;;
36457;SDS011;22480;50.546;12.292;2023-02-23T00:06:14;13.48;;;9.75;;
36457;SDS011;22480;50.546;12.292;2023-02-23T00:08:43;12.68;;;9.35;;
36457;SDS011;22480;50.546;12.292;2023-02-23T00:11:12;12.13;;;9.45;;
36457;SDS011;22480;50.546;12.292;2023-02-23T00:13:39;13.65;;;9.93;;
36457;SDS011;22480;50.546;12.292;2023-02-23T00:16:07;13.98;;;10.52;;
36457;SDS011;22480;50.546;12.292;2023-02-23T00:18:41;14.45;;;10.48;;
36457;SDS011;22480;50.546;12.292;2023-02-23T00:21:20;12.75;;;9.40;;
36457;SDS011;22480;50.546;12.292;2023-02-23T00:23:51;17.48;;;9.40;;
36457;SDS011;22480;50.546;12.292;2023-02-23T00:26:22;12.38;;;9.38;;
36457;SDS011;22480;50.546;12.292;2023-02-23T00:28:49;12.38;;;8.88;;
36457;SDS011;22480;50.546;12.292;2023-02-23T00:31:17;11.80;;;8.40;;
36457;SDS011;22480;50.546;12.292;2023-02-23T00:33:49;10.25;;;7.68;;
36457;SDS011;22480;50.546;12.292;2023-02-23T00:36:18;13.73;;;8.70;;
36457;SDS011;22480;50.546;12.292;2023-02-23T00:38:45;11.98;;;8.43;;
36457;SDS011;22480;50.546;12.292;2023-02-23T00:41:12;11.50;;;8.90;;
36457;SDS011;22480;50.546;12.292;2023-02-23T00:46:14;13.70;;;9.43;;
36457;SDS011;22480;50.546;12.292;2023-02-23T00:48:45;14.32;;;9.65;;
36457;SDS011;22480;50.546;12.292;2023-02-23T00:51:16;12.32;;;9.35;;
36457;SDS011;22480;50.546;12.292;2023-02-23T00:53:43;13.07;;;10.07;;
36457;SDS011;22480;50.546;12.292;2023-02-23T00:56:10;15.18;;;10.23;;
36457;SDS011;22480;50.546;12.292;2023-02-23T00:58:37;15.70;;;10.40;;
36457;SDS011;22480;50.546;12.292;2023-02-23T01:01:08;15.93;;;10.55;;
36457;SDS011;22480;50.546;12.292;2023-02-23T01:03:35;18.58;;;10.95;;
36457;SDS011;22480;50.546;12.292;2023-02-23T01:06:03;14.43;;;10.77;;
36457;SDS011;22480;50.546;12.292;2023-02-23T01:08:31;13.40;;;10.00;;
36457;SDS011;22480;50.546;12.292;2023-02-23T01:10:58;13.65;;;11.00;;
36457;SDS011;22480;50.546;12.292;2023-02-23T01:13:30;16.05;;;11.38;;
36457;SDS011;22480;50.546;12.292;2023-02-23T01:15:56;16.52;;;10.80;;
36457;SDS011;22480;50.546;12.292;2023-02-23T01:18:24;14.63;;;10.73;;
36457;SDS011;22480;50.546;12.292;2023-02-23T01:20:49;17.02;;;11.13;;
36457;SDS011;22480;50.546;12.292;2023-02-23T01:23:15;16.13;;;10.55;;
36457;SDS011;22480;50.546;12.292;2023-02-23T01:25:42;15.52;;;11.52;;
36457;SDS011;22480;50.546;12.292;2023-02-23T01:28:12;16.58;;;11.75;;
36457;SDS011;22480;50.546;12.292;2023-02-23T01:30:38;18.33;;;11.23;;
36457;SDS011;22480;50.546;12.292;2023-02-23T01:33:06;18.08;;;11.82;;
36457;SDS011;22480;50.546;12.292;2023-02-23T01:35:31;16.08;;;11.20;;
36457;SDS011;22480;50.546;12.292;2023-02-23T01:37:57;14.50;;;9.98;;
36457;SDS011;22480;50.546;12.292;2023-02-23T01:40:25;17.52;;;10.90;;
36457;SDS011;22480;50.546;12.292;2023-02-23T01:43:17;15.23;;;11.65;;
36457;SDS011;22480;50.546;12.292;2023-02-23T01:45:42;15.90;;;9.88;;
36457;SDS011;22480;50.546;12.292;2023-02-23T01:48:11;12.80;;;9.52;;
36457;SDS011;22480;50.546;12.292;2023-02-23T01:50:42;13.63;;;9.23;;
36457;SDS011;22480;50.546;12.292;2023-02-23T01:53:16;14.27;;;9.35;;
36457;SDS011;22480;50.546;12.292;2023-02-23T01:55:50;13.73;;;9.05;;
36457;SDS011;22480;50.546;12.292;2023-02-23T01:58:21;12.68;;;8.65;;
36457;SDS011;22480;50.546;12.292;2023-02-23T02:00:49;13.05;;;9.13;;
36457;SDS011;22480;50.546;12.292;2023-02-23T02:03:30;14.88;;;9.93;;
36457;SDS011;22480;50.546;12.292;2023-02-23T02:06:00;13.18;;;9.13;;
36457;SDS011;22480;50.546;12.292;2023-02-23T02:08:28;13.32;;;9.32;;
36457;SDS011;22480;50.546;12.292;2023-02-23T02:10:57;12.98;;;9.75;;
36457;SDS011;22480;50.546;12.292;2023-02-23T02:13:27;14.93;;;9.60;;
36457;SDS011;22480;50.546;12.292;2023-02-23T02:21:57;15.55;;;10.25;;
36457;SDS011;22480;50.546;12.292;2023-02-23T02:27:34;15.18;;;9.93;;
36457;SDS011;22480;50.546;12.292;2023-02-23T02:30:19;15.00;;;10.00;;
36457;SDS011;22480;50.546;12.292;2023-02-23T02:38:45;16.23;;;10.93;;
36457;SDS011;22480;50.546;12.292;2023-02-23T02:41:28;13.40;;;9.80;;
36457;SDS011;22480;50.546;12.292;2023-02-23T02:44:14;13.38;;;9.93;;
36457;SDS011;22480;50.546;12.292;2023-02-23T02:46:46;12.80;;;9.63;;
36457;SDS011;22480;50.546;12.292;2023-02-23T02:49:21;16.40;;;9.77;;
36457;SDS011;22480;50.546;12.292;2023-02-23T02:51:52;13.50;;;10.02;;
36457;SDS011;22480;50.546;12.292;2023-02-23T02:54:45;13.82;;;9.15;;
36457;SDS011;22480;50.546;12.292;2023-02-23T02:57:18;14.80;;;9.52;;
36457;SDS011;22480;50.546;12.292;2023-02-23T02:59:47;14.15;;;10.40;;
36457;SDS011;22480;50.546;12.292;2023-02-23T03:02:34;14.35;;;10.05;;
36457;SDS011;22480;50.546;12.292;2023-02-23T03:05:44;14.30;;;9.65;;
36457;SDS011;22480;50.546;12.292;2023-02-23T03:08:47;18.15;;;11.02;;
36457;SDS011;22480;50.546;12.292;2023-02-23T03:11:38;15.05;;;10.77;;
36457;SDS011;22480;50.546;12.292;2023-02-23T03:21:07;15.88;;;10.95;;
36457;SDS011;22480;50.546;12.292;2023-02-23T03:24:18;15.30;;;11.10;;
36457;SDS011;22480;50.546;12.292;2023-02-23T03:30:24;16.75;;;10.80;;
36457;SDS011;22480;50.546;12.292;2023-02-23T03:33:18;16.90;;;10.90;;
36457;SDS011;22480;50.546;12.292;2023-02-23T03:36:15;15.63;;;10.65;;
36457;SDS011;22480;50.546;12.292;2023-02-23T03:42:26;17.30;;;10.95;;
36457;SDS011;22480;50.546;12.292;2023-02-23T03:45:15;16.90;;;12.15;;
36457;SDS011;22480;50.546;12.292;2023-02-23T03:48:03;17.08;;;11.27;;
36457;SDS011;22480;50.546;12.292;2023-02-23T03:50:52;16.63;;;11.73;;
36457;SDS011;22480;50.546;12.292;2023-02-23T03:53:40;18.65;;;12.38;;
36457;SDS011;22480;50.546;12.292;2023-02-23T03:56:55;21.17;;;12.25;;
36457;SDS011;22480;50.546;12.292;2023-02-23T03:59:46;17.17;;;12.48;;
36457;SDS011;22480;50.546;12.292;2023-02-23T04:02:42;17.52;;;11.65;;
36457;SDS011;22480;50.546;12.292;2023-02-23T04:05:30;16.67;;;11.95;;
36457;SDS011;22480;50.546;12.292;2023-02-23T04:08:18;17.85;;;12.05;;
36457;SDS011;22480;50.546;12.292;2023-02-23T04:11:09;15.40;;;11.35;;
36457;SDS011;22480;50.546;12.292;2023-02-23T04:13:59;14.32;;;10.35;;
36457;SDS011;22480;50.546;12.292;2023-02-23T04:16:28;14.98;;;10.77;;
36457;SDS011;22480;50.546;12.292;2023-02-23T04:18:56;15.15;;;10.82;;
36457;SDS011;22480;50.546;12.292;2023-02-23T04:21:22;16.55;;;10.88;;
36457;SDS011;22480;50.546;12.292;2023-02-23T04:23:47;16.52;;;11.50;;
36457;SDS011;22480;50.546;12.292;2023-02-23T04:26:13;16.35;;;11.40;;
36457;SDS011;22480;50.546;12.292;2023-02-23T04:28:39;14.75;;;10.85;;
36457;SDS011;22480;50.546;12.292;2023-02-23T04:31:05;16.73;;;11.90;;
36457;SDS011;22480;50.546;12.292;2023-02-23T04:33:30;17.08;;;11.73;;
36457;SDS011;22480;50.546;12.292;2023-02-23T04:35:56;16.05;;;11.15;;
36457;SDS011;22480;50.546;12.292;2023-02-23T04:38:22;16.05;;;11.25;;
36457;SDS011;22480;50.546;12.292;2023-02-23T04:40:48;14.15;;;10.00;;
36457;SDS011;22480;50.546;12.292;2023-02-23T04:43:14;14.30;;;9.43;;
36457;SDS011;22480;50.546;12.292;2023-02-23T04:45:40;13.52;;;9.93;;
36457;SDS011;22480;50.546;12.292;2023-02-23T04:48:06;16.80;;;10.68;;
36457;SDS011;22480;50.546;12.292;2023-02-23T04:50:32;14.15;;;10.10;;
36457;SDS011;22480;50.546;12.292;2023-02-23T04:52:58;15.38;;;9.27;;
36457;SDS011;22480;50.546;12.292;2023-02-23T04:55:24;14.00;;;9.38;;
36457;SDS011;22480;50.546;12.292;2023-02-23T04:57:51;14.25;;;9.55;;
36457;SDS011;22480;50.546;12.292;2023-02-23T05:00:21;14.55;;;9.57;;
36457;SDS011;22480;50.546;12.292;2023-02-23T05:02:47;13.43;;;9.25;;
36457;SDS011;22480;50.546;12.292;2023-02-23T05:05:13;14.35;;;9.88;;
36457;SDS011;22480;50.546;12.292;2023-02-23T05:07:38;15.25;;;9.20;;
36457;SDS011;22480;50.546;12.292;2023-02-23T05:10:04;12.77;;;9.60;;
36457;SDS011;22480;50.546;12.292;2023-02-23T05:12:31;12.50;;;9.35;;
36457;SDS011;22480;50.546;12.292;2023-02-23T05:14:57;13.35;;;10.00;;
36457;SDS011;22480;50.546;12.292;2023-02-23T05:17:23;12.48;;;10.07;;
36457;SDS011;22480;50.546;12.292;2023-02-23T05:19:49;15.15;;;9.98;;
36457;SDS011;22480;50.546;12.292;2023-02-23T05:22:16;14.07;;;9.80;;
36457;SDS011;22480;50.546;12.292;2023-02-23T05:24:41;20.92;;;15.02;;
36457;SDS011;22480;50.546;12.292;2023-02-23T05:27:07;13.80;;;10.50;;
36457;SDS011;22480;50.546;12.292;2023-02-23T05:29:38;21.85;;;15.35;;
36457;SDS011;22480;50.546;12.292;2023-02-23T05:32:04;14.20;;;11.02;;
36457;SDS011;22480;50.546;12.292;2023-02-23T05:34:30;13.73;;;9.77;;
36457;SDS011;22480;50.546;12.292;2023-02-23T05:36:55;15.13;;;9.98;;
36457;SDS011;22480;50.546;12.292;2023-02-23T05:39:21;13.55;;;10.73;;
36457;SDS011;22480;50.546;12.292;2023-02-23T05:41:47;12.90;;;10.07;;
36457;SDS011;22480;50.546;12.292;2023-02-23T05:44:12;23.02;;;11.82;;
36457;SDS011;22480;50.546;12.292;2023-02-23T05:46:38;16.90;;;12.07;;
36457;SDS011;22480;50.546;12.292;2023-02-23T05:49:04;14.55;;;10.68;;
36457;SDS011;22480;50.546;12.292;2023-02-23T05:51:30;14.35;;;11.15;;
36457;SDS011;22480;50.546;12.292;2023-02-23T05:53:58;19.77;;;11.57;;
36457;SDS011;22480;50.546;12.292;2023-02-23T05:56:24;17.15;;;11.27;;
36457;SDS011;22480;50.546;12.292;2023-02-23T05:58:50;17.20;;;11.30;;
36457;SDS011;22480;50.546;12.292;2023-02-23T06:01:18;16.77;;;11.65;;
36457;SDS011;22480;50.546;12.292;2023-02-23T06:03:45;17.33;;;10.68;;
36457;SDS011;22480;50.546;12.292;2023-02-23T06:06:12;20.63;;;12.70;;
36457;SDS011;22480;50.546;12.292;2023-02-23T06:08:38;16.95;;;12.00;;
36457;SDS011;22480;50.546;12.292;2023-02-23T06:11:04;18.95;;;13.05;;
36457;SDS011;22480;50.546;12.292;2023-02-23T06:13:30;18.85;;;12.40;;
36457;SDS011;22480;50.546;12.292;2023-02-23T06:15:56;18.95;;;12.15;;
36457;SDS011;22480;50.546;12.292;2023-02-23T06:18:23;16.83;;;12.73;;
36457;SDS011;22480;50.546;12.292;2023-02-23T06:20:50;16.92;;;11.13;;
36457;SDS011;22480;50.546;12.292;2023-02-23T06:23:15;16.65;;;11.65;;
36457;SDS011;22480;50.546;12.292;2023-02-23T06:25:42;18.27;;;12.05;;
36457;SDS011;22480;50.546;12.292;2023-02-23T06:28:08;16.50;;;11.43;;
36457;SDS011;22480;50.546;12.292;2023-02-23T06:30:35;16.52;;;11.63;;
36457;SDS011;22480;50.546;12.292;2023-02-23T06:33:01;16.85;;;10.52;;
36457;SDS011;22480;50.546;12.292;2023-02-23T06:35:28;14.23;;;10.82;;
36457;SDS011;22480;50.546;12.292;2023-02-23T06:37:54;16.40;;;12.10;;
36457;SDS011;22480;50.546;12.292;2023-02-23T06:40:20;14.93;;;10.50;;
36457;SDS011;22480;50.546;12.292;2023-02-23T06:42:45;15.75;;;11.55;;
36457;SDS011;22480;50.546;12.292;2023-02-23T06:45:11;14.10;;;10.18;;
36457;SDS011;22480;50.546;12.292;2023-02-23T06:47:38;16.50;;;11.85;;
36457;SDS011;22480;50.546;12.292;2023-02-23T06:50:05;17.83;;;12.13;;
36457;SDS011;22480;50.546;12.292;2023-02-23T06:52:32;15.50;;;10.52;;
36457;SDS011;22480;50.546;12.292;2023-02-23T06:54:58;14.95;;;11.90;;
36457;SDS011;22480;50.546;12.292;2023-02-23T06:57:24;15.05;;;11.20;;
36457;SDS011;22480;50.546;12.292;2023-02-23T06:59:49;15.65;;;10.95;;
36457;SDS011;22480;50.546;12.292;2023-02-23T07:02:15;15.98;;;10.65;;
36457;SDS011;22480;50.546;12.292;2023-02-23T07:04:41;18.55;;;11.52;;
36457;SDS011;22480;50.546;12.292;2023-02-23T07:07:07;16.50;;;12.25;;
36457;SDS011;22480;50.546;12.292;2023-02-23T07:09:32;16.58;;;10.73;;
36457;SDS011;22480;50.546;12.292;2023-02-23T07:11:59;15.88;;;10.88;;
36457;SDS011;22480;50.546;12.292;2023-02-23T07:14:24;17.10;;;11.15;;
36457;SDS011;22480;50.546;12.292;2023-02-23T07:16:50;14.70;;;10.77;;
36457;SDS011;22480;50.546;12.292;2023-02-23T07:19:16;15.95;;;10.65;;
36457;SDS011;22480;50.546;12.292;2023-02-23T07:21:42;14.38;;;11.20;;
36457;SDS011;22480;50.546;12.292;2023-02-23T07:24:07;13.80;;;10.45;;
36457;SDS011;22480;50.546;12.292;2023-02-23T07:26:33;14.73;;;10.57;;
36457;SDS011;22480;50.546;12.292;2023-02-23T07:28:59;15.63;;;10.93;;
36457;SDS011;22480;50.546;12.292;2023-02-23T07:31:26;15.80;;;10.18;;
36457;SDS011;22480;50.546;12.292;2023-02-23T07:33:53;15.85;;;11.43;;
36457;SDS011;22480;50.546;12.292;2023-02-23T07:36:19;16.40;;;11.55;;
36457;SDS011;22480;50.546;12.292;2023-02-23T07:38:46;21.38;;;15.13;;
36457;SDS011;22480;50.546;12.292;2023-02-23T07:41:12;26.63;;;18.92;;
36457;SDS011;22480;50.546;12.292;2023-02-23T07:43:37;29.27;;;18.67;;
36457;SDS011;22480;50.546;12.292;2023-02-23T07:46:03;25.70;;;18.33;;
36457;SDS011;22480;50.546;12.292;2023-02-23T07:48:29;21.33;;;15.57;;
36457;SDS011;22480;50.546;12.292;2023-02-23T07:50:55;20.83;;;14.07;;
36457;SDS011;22480;50.546;12.292;2023-02-23T07:53:20;26.83;;;19.13;;
36457;SDS011;22480;50.546;12.292;2023-02-23T07:55:54;23.75;;;16.73;;
36457;SDS011;22480;50.546;12.292;2023-02-23T07:58:23;19.10;;;13.57;;
36457;SDS011;22480;50.546;12.292;2023-02-23T08:00:49;20.02;;;13.48;;
36457;SDS011;22480;50.546;12.292;2023-02-23T08:03:14;32.28;;;18.63;;
36457;SDS011;22480;50.546;12.292;2023-02-23T08:05:40;24.80;;;15.43;;
36457;SDS011;22480;50.546;12.292;2023-02-23T08:08:06;18.92;;;12.70;;
36457;SDS011;22480;50.546;12.292;2023-02-23T08:10:31;22.70;;;15.65;;
36457;SDS011;22480;50.546;12.292;2023-02-23T08:12:57;23.98;;;14.85;;
36457;SDS011;22480;50.546;12.292;2023-02-23T08:15:24;32.88;;;21.92;;
36457;SDS011;22480;50.546;12.292;2023-02-23T08:17:49;19.92;;;13.82;;
36457;SDS011;22480;50.546;12.292;2023-02-23T08:20:15;22.83;;;16.00;;
36457;SDS011;22480;50.546;12.292;2023-02-23T08:22:41;25.88;;;16.38;;
36457;SDS011;22480;50.546;12.292;2023-02-23T08:25:07;27.73;;;17.35;;
36457;SDS011;22480;50.546;12.292;2023-02-23T08:27:34;33.30;;;22.92;;
36457;SDS011;22480;50.546;12.292;2023-02-23T08:30:01;29.88;;;18.65;;
36457;SDS011;22480;50.546;12.292;2023-02-23T08:32:32;17.13;;;12.00;;
36457;SDS011;22480;50.546;12.292;2023-02-23T08:35:01;14.77;;;10.02;;
36457;SDS011;22480;50.546;12.292;2023-02-23T08:37:28;12.27;;;9.80;;
36457;SDS011;22480;50.546;12.292;2023-02-23T08:39:54;12.77;;;9.93;;
36457;SDS011;22480;50.546;12.292;2023-02-23T08:42:20;11.80;;;9.43;;
36457;SDS011;22480;50.546;12.292;2023-02-23T08:44:46;12.48;;;9.75;;
36457;SDS011;22480;50.546;12.292;2023-02-23T08:47:13;12.88;;;9.05;;
36457;SDS011;22480;50.546;12.292;2023-02-23T08:49:40;12.20;;;9.75;;
36457;SDS011;22480;50.546;12.292;2023-02-23T08:52:06;12.00;;;9.20;;
36457;SDS011;22480;50.546;12.292;2023-02-23T08:54:32;13.73;;;9.82;;
36457;SDS011;22480;50.546;12.292;2023-02-23T08:56:58;13.50;;;9.57;;
36457;SDS011;22480;50.546;12.292;2023-02-23T08:59:23;14.23;;;9.73;;
36457;SDS011;22480;50.546;12.292;2023-02-23T09:01:50;11.52;;;9.57;;
36457;SDS011;22480;50.546;12.292;2023-02-23T09:04:16;13.98;;;10.00;;
36457;SDS011;22480;50.546;12.292;2023-02-23T09:06:42;13.30;;;10.65;;
36457;SDS011;22480;50.546;12.292;2023-02-23T09:09:08;17.27;;;12.25;;
36457;SDS011;22480;50.546;12.292;2023-02-23T09:11:34;14.32;;;12.15;;
36457;SDS011;22480;50.546;12.292;2023-02-23T09:14:00;16.02;;;11.85;;
36457;SDS011;22480;50.546;12.292;2023-02-23T09:16:25;17.70;;;12.65;;
36457;SDS011;22480;50.546;12.292;2023-02-23T09:18:51;19.27;;;11.77;;
36457;SDS011;22480;50.546;12.292;2023-02-23T09:21:18;15.18;;;11.75;;
36457;SDS011;22480;50.546;12.292;2023-02-23T09:23:49;15.52;;;11.98;;
36457;SDS011;22480;50.546;12.292;2023-02-23T09:26:17;19.27;;;12.68;;
36457;SDS011;22480;50.546;12.292;2023-02-23T09:28:43;18.02;;;12.18;;
36457;SDS011;22480;50.546;12.292;2023-02-23T09:31:11;17.77;;;13.23;;
36457;SDS011;22480;50.546;12.292;2023-02-23T09:33:39;16.10;;;12.75;;
36457;SDS011;22480;50.546;12.292;2023-02-23T09:36:06;17.58;;;12.43;;
36457;SDS011;22480;50.546;12.292;2023-02-23T09:38:40;16.23;;;11.88;;
36457;SDS011;22480;50.546;12.292;2023-02-23T09:49:34;22.00;;;14.73;;
36457;SDS011;22480;50.546;12.292;2023-02-23T09:52:02;15.15;;;11.88;;
36457;SDS011;22480;50.546;12.292;2023-02-23T09:54:31;17.38;;;12.75;;
36457;SDS011;22480;50.546;12.292;2023-02-23T09:56:59;19.10;;;13.35;;
36457;SDS011;22480;50.546;12.292;2023-02-23T09:59:28;20.13;;;14.65;;
36457;SDS011;22480;50.546;12.292;2023-02-23T10:01:57;19.10;;;14.10;;
36457;SDS011;22480;50.546;12.292;2023-02-23T10:04:58;17.45;;;13.75;;
36457;SDS011;22480;50.546;12.292;2023-02-23T10:07:20;17.60;;;12.88;;
36457;SDS011;22480;50.546;12.292;2023-02-23T10:15:36;17.88;;;12.57;;
36457;SDS011;22480;50.546;12.292;2023-02-23T10:20:59;17.15;;;13.55;;
36457;SDS011;22480;50.546;12.292;2023-02-23T10:23:30;19.58;;;14.23;;
36457;SDS011;22480;50.546;12.292;2023-02-23T10:26:01;18.27;;;14.35;;
36457;SDS011;22480;50.546;12.292;2023-02-23T10:28:32;19.40;;;14.85;;
36457;SDS011;22480;50.546;12.292;2023-02-23T10:31:00;22.45;;;15.95;;
36457;SDS011;22480;50.546;12.292;2023-02-23T10:33:35;28.40;;;18.38;;
36457;SDS011;22480;50.546;12.292;2023-02-23T10:39:06;19.90;;;14.43;;
36457;SDS011;22480;50.546;12.292;2023-02-23T10:41:33;19.80;;;14.88;;
36457;SDS011;22480;50.546;12.292;2023-02-23T10:44:00;19.90;;;15.38;;
36457;SDS011;22480;50.546;12.292;2023-02-23T10:46:35;19.52;;;15.55;;
36457;SDS011;22480;50.546;12.292;2023-02-23T10:49:03;17.75;;;14.73;;
36457;SDS011;22480;50.546;12.292;2023-02-23T10:51:32;23.90;;;16.85;;
36457;SDS011;22480;50.546;12.292;2023-02-23T10:56:58;20.23;;;15.15;;
36457;SDS011;22480;50.546;12.292;2023-02-23T10:59:24;23.08;;;15.00;;
36457;SDS011;22480;50.546;12.292;2023-02-23T11:01:51;21.65;;;17.08;;
36457;SDS011;22480;50.546;12.292;2023-02-23T11:04:22;19.33;;;15.48;;
36457;SDS011;22480;50.546;12.292;2023-02-23T11:06:50;22.83;;;16.13;;
36457;SDS011;22480;50.546;12.292;2023-02-23T11:09:31;20.65;;;15.63;;
36457;SDS011;22480;50.546;12.292;2023-02-23T11:12:02;20.67;;;16.60;;
36457;SDS011;22480;50.546;12.292;2023-02-23T11:14:39;19.10;;;14.98;;
36457;SDS011;22480;50.546;12.292;2023-02-23T11:17:05;20.70;;;16.23;;
36457;SDS011;22480;50.546;12.292;2023-02-23T11:19:50;21.15;;;15.85;;
36457;SDS011;22480;50.546;12.292;2023-02-23T11:22:22;21.80;;;16.10;;
36457;SDS011;22480;50.546;12.292;2023-02-23T11:24:51;18.83;;;14.82;;
36457;SDS011;22480;50.546;12.292;2023-02-23T11:27:22;18.90;;;15.48;;
36457;SDS011;22480;50.546;12.292;2023-02-23T11:29:50;18.40;;;14.18;;
36457;SDS011;22480;50.546;12.292;2023-02-23T11:34:45;19.42;;;14.88;;
36457;SDS011;22480;50.546;12.292;2023-02-23T11:39:51;20.67;;;15.30;;
36457;SDS011;22480;50.546;12.292;2023-02-23T11:42:18;23.15;;;16.52;;
36457;SDS011;22480;50.546;12.292;2023-02-23T11:44:50;20.77;;;16.00;;
36457;SDS011;22480;50.546;12.292;2023-02-23T11:47:26;24.08;;;16.15;;
36457;SDS011;22480;50.546;12.292;2023-02-23T11:49:51;20.50;;;16.35;;
36457;SDS011;22480;50.546;12.292;2023-02-23T11:52:19;19.10;;;15.75;;
36457;SDS011;22480;50.546;12.292;2023-02-23T11:54:56;22.38;;;16.88;;
36457;SDS011;22480;50.546;12.292;2023-02-23T11:57:28;22.73;;;17.02;;
36457;SDS011;22480;50.546;12.292;2023-02-23T11:59:58;23.20;;;16.50;;
36457;SDS011;22480;50.546;12.292;2023-02-23T12:02:27;21.38;;;16.45;;
36457;SDS011;22480;50.546;12.292;2023-02-23T12:05:01;21.70;;;17.35;;
36457;SDS011;22480;50.546;12.292;2023-02-23T12:07:50;20.27;;;15.43;;
36457;SDS011;22480;50.546;12.292;2023-02-23T12:10:20;24.75;;;17.02;;
36457;SDS011;22480;50.546;12.292;2023-02-23T12:15:46;18.60;;;15.00;;
36457;SDS011;22480;50.546;12.292;2023-02-23T12:18:18;23.77;;;16.60;;
36457;SDS011;22480;50.546;12.292;2023-02-23T12:24:38;17.67;;;14.40;;
36457;SDS011;22480;50.546;12.292;2023-02-23T12:26:54;19.88;;;15.48;;
36457;SDS011;22480;50.546;12.292;2023-02-23T12:29:30;20.65;;;15.30;;
36457;SDS011;22480;50.546;12.292;2023-02-23T12:35:22;22.23;;;16.10;;
36457;SDS011;22480;50.546;12.292;2023-02-23T12:40:34;21.73;;;15.63;;
36457;SDS011;22480;50.546;12.292;2023-02-23T12:43:10;19.25;;;15.23;;
36457;SDS011;22480;50.546;12.292;2023-02-23T12:45:53;24.60;;;15.75;;
36457;SDS011;22480;50.546;12.292;2023-02-23T12:48:29;20.88;;;16.23;;
36457;SDS011;22480;50.546;12.292;2023-02-23T12:53:49;19.77;;;15.10;;
36457;SDS011;22480;50.546;12.292;2023-02-23T12:56:31;19.88;;;15.60;;
36457;SDS011;22480;50.546;12.292;2023-02-23T13:02:23;30.50;;;14.75;;
36457;SDS011;22480;50.546;12.292;2023-02-23T13:05:06;19.77;;;14.07;;
36457;SDS011;22480;50.546;12.292;2023-02-23T13:07:40;20.08;;;13.52;;
36457;SDS011;22480;50.546;12.292;2023-02-23T13:15:45;13.82;;;9.85;;
36457;SDS011;22480;50.546;12.292;2023-02-23T13:21:36;17.05;;;11.13;;
36457;SDS011;22480;50.546;12.292;2023-02-23T13:24:12;17.05;;;10.07;;
36457;SDS011;22480;50.546;12.292;2023-02-23T13:29:47;18.55;;;12.32;;
36457;SDS011;22480;50.546;12.292;2023-02-23T13:32:28;18.60;;;12.52;;
36457;SDS011;22480;50.546;12.292;2023-02-23T13:34:57;16.48;;;10.80;;
36457;SDS011;22480;50.546;12.292;2023-02-23T13:37:36;13.13;;;10.25;;
36457;SDS011;22480;50.546;12.292;2023-02-23T13:45:49;18.42;;;11.65;;
36457;SDS011;22480;50.546;12.292;2023-02-23T13:49:15;26.58;;;14.35;;
36457;SDS011;22480;50.546;12.292;2023-02-23T13:53:57;15.82;;;11.57;;
36457;SDS011;22480;50.546;12.292;2023-02-23T13:56:26;19.38;;;10.65;;
36457;SDS011;22480;50.546;12.292;2023-02-23T13:59:07;17.17;;;10.68;;
36457;SDS011;22480;50.546;12.292;2023-02-23T14:01:45;14.55;;;10.23;;
36457;SDS011;22480;50.546;12.292;2023-02-23T14:06:59;15.07;;;8.35;;
36457;SDS011;22480;50.546;12.292;2023-02-23T14:10:14;13.77;;;8.35;;
36457;SDS011;22480;50.546;12.292;2023-02-23T14:17:59;13.32;;;9.43;;
36457;SDS011;22480;50.546;12.292;2023-02-23T14:23:15;13.07;;;8.77;;
36457;SDS011;22480;50.546;12.292;2023-02-23T14:28:37;17.77;;;10.60;;
36457;SDS011;22480;50.546;12.292;2023-02-23T14:41:35;16.15;;;11.82;;
36457;SDS011;22480;50.546;12.292;2023-02-23T14:46:31;18.10;;;11.73;;
36457;SDS011;22480;50.546;12.292;2023-02-23T14:49:06;16.80;;;11.90;;
36457;SDS011;22480;50.546;12.292;2023-02-23T14:51:37;14.27;;;9.77;;
36457;SDS011;22480;50.546;12.292;2023-02-23T14:54:20;16.25;;;9.90;;
36457;SDS011;22480;50.546;12.292;2023-02-23T14:56:56;16.83;;;10.75;;
36457;SDS011;22480;50.546;12.292;2023-02-23T14:59:41;13.30;;;10.43;;
36457;SDS011;22480;50.546;12.292;2023-02-23T15:02:09;15.98;;;11.23;;
36457;SDS011;22480;50.546;12.292;2023-02-23T15:04:46;20.27;;;11.60;;
36457;SDS011;22480;50.546;12.292;2023-02-23T15:07:17;18.15;;;12.30;;
36457;SDS011;22480;50.546;12.292;2023-02-23T15:09:55;19.52;;;12.70;;
36457;SDS011;22480;50.546;12.292;2023-02-23T15:12:23;19.08;;;12.93;;
36457;SDS011;22480;50.546;12.292;2023-02-23T15:14:58;20.27;;;14.13;;
36457;SDS011;22480;50.546;12.292;2023-02-23T15:17:26;18.23;;;11.73;;
36457;SDS011;22480;50.546;12.292;2023-02-23T15:19:59;18.17;;;12.32;;
36457;SDS011;22480;50.546;12.292;2023-02-23T15:22:30;19.25;;;11.82;;
36457;SDS011;22480;50.546;12.292;2023-02-23T15:24:59;20.25;;;12.63;;
36457;SDS011;22480;50.546;12.292;2023-02-23T15:27:44;20.58;;;13.40;;
36457;SDS011;22480;50.546;12.292;2023-02-23T15:30:18;17.65;;;12.52;;
36457;SDS011;22480;50.546;12.292;2023-02-23T15:32:58;17.95;;;11.98;;
36457;SDS011;22480;50.546;12.292;2023-02-23T15:35:28;17.67;;;12.15;;
36457;SDS011;22480;50.546;12.292;2023-02-23T15:37:59;22.77;;;13.50;;
36457;SDS011;22480;50.546;12.292;2023-02-23T15:40:26;17.30;;;11.90;;
36457;SDS011;22480;50.546;12.292;2023-02-23T15:42:55;18.88;;;11.95;;
36457;SDS011;22480;50.546;12.292;2023-02-23T15:45:44;14.77;;;11.57;;
36457;SDS011;22480;50.546;12.292;2023-02-23T15:48:15;18.52;;;12.98;;
36457;SDS011;22480;50.546;12.292;2023-02-23T15:50:45;19.17;;;11.75;;
36457;SDS011;22480;50.546;12.292;2023-02-23T15:53:25;19.90;;;14.00;;
36457;SDS011;22480;50.546;12.292;2023-02-23T15:55:56;17.80;;;12.00;;
36457;SDS011;22480;50.546;12.292;2023-02-23T15:58:37;20.33;;;13.02;;
36457;SDS011;22480;50.546;12.292;2023-02-23T16:01:07;16.92;;;11.13;;
36457;SDS011;22480;50.546;12.292;2023-02-23T16:03:45;17.25;;;12.38;;
36457;SDS011;22480;50.546;12.292;2023-02-23T16:08:57;17.92;;;12.45;;
36457;SDS011;22480;50.546;12.292;2023-02-23T16:11:30;18.05;;;12.60;;
36457;SDS011;22480;50.546;12.292;2023-02-23T16:14:01;18.98;;;12.30;;
36457;SDS011;22480;50.546;12.292;2023-02-23T16:16:28;18.83;;;13.23;;
36457;SDS011;22480;50.546;12.292;2023-02-23T16:18:54;19.67;;;12.77;;
36457;SDS011;22480;50.546;12.292;2023-02-23T16:21:27;17.50;;;13.02;;
36457;SDS011;22480;50.546;12.292;2023-02-23T16:23:55;18.52;;;12.30;;
36457;SDS011;22480;50.546;12.292;2023-02-23T16:26:59;18.35;;;12.43;;
36457;SDS011;22480;50.546;12.292;2023-02-23T16:29:32;21.63;;;13.40;;
36457;SDS011;22480;50.546;12.292;2023-02-23T16:32:15;22.58;;;13.30;;
36457;SDS011;22480;50.546;12.292;2023-02-23T16:34:58;20.27;;;12.32;;
36457;SDS011;22480;50.546;12.292;2023-02-23T16:37:25;20.48;;;15.05;;
36457;SDS011;22480;50.546;12.292;2023-02-23T16:39:54;18.80;;;12.80;;
36457;SDS011;22480;50.546;12.292;2023-02-23T16:44:53;16.75;;;10.50;;